Time;durP1;ratioP1;P1;durP2;ratioP2;P2;SDS_P1;SDS_P2;PMS_P1;PMS_P2;Temp;Humidity;BMP_temperature;BMP_pressure;BME280_temperature;BME280_humidity;BME280_pressure;Samples;Min_cycle;Max_cycle;Signal;HPM_P1;HPM_P2
2023/03/19 00:01:43;;;;;;;0.10;0.10;;;;;;;-3.16;46.68;101151.25;5005910;28;20049;-74
2023/03/19 00:04:09;;;;;;;0.10;0.10;;;;;;;-3.17;46.97;101165.63;4987270;28;20104;-74
2023/03/19 00:06:35;;;;;;;0.10;0.10;;;;;;;-3.22;46.86;101154.53;5004221;28;20746;-73
2023/03/19 00:09:03;;;;;;;0.10;0.10;;;;;;;-3.24;47.15;101153.84;4996798;28;20050;-73
2023/03/19 00:11:29;;;;;;;0.10;0.10;;;;;;;-3.27;47.19;101155.00;4987913;28;20051;-74
2023/03/19 00:13:55;;;;;;;0.10;0.10;;;;;;;-3.28;47.25;101143.47;4984393;28;20105;-73
2023/03/19 00:16:25;;;;;;;0.10;0.10;;;;;;;-3.30;47.52;101147.28;4972116;28;20081;-73
2023/03/19 00:18:51;;;;;;;0.10;0.10;;;;;;;-3.39;47.27;101127.63;4989758;28;20073;-72
2023/03/19 00:21:17;;;;;;;0.20;0.20;;;;;;;-3.32;47.68;101146.59;4998312;28;20057;-72
2023/03/19 00:23:43;;;;;;;0.10;0.10;;;;;;;-3.35;47.70;101126.31;5001890;28;20100;-74
2023/03/19 00:26:10;;;;;;;0.10;0.10;;;;;;;-3.34;47.94;101133.34;5004764;28;20073;-73
2023/03/19 00:28:37;;;;;;;0.20;0.20;;;;;;;-3.40;47.79;101128.59;5003786;28;20046;-73
2023/03/19 00:31:08;;;;;;;0.20;0.20;;;;;;;-3.39;48.18;101134.78;5004448;28;20567;-73
2023/03/19 00:33:34;;;;;;;0.10;0.10;;;;;;;-3.42;48.20;101125.25;5005318;28;20796;-74
2023/03/19 00:36:00;;;;;;;0.10;0.10;;;;;;;-3.45;48.20;101120.16;5006795;28;20054;-73
2023/03/19 00:38:27;;;;;;;0.40;0.20;;;;;;;-3.50;48.30;101117.97;5008542;28;20129;-73
2023/03/19 00:40:53;;;;;;;0.53;0.13;;;;;;;-3.56;48.34;101106.03;4984098;28;20069;-73
2023/03/19 00:43:20;;;;;;;0.10;0.10;;;;;;;-3.49;48.62;101119.66;5005974;28;20045;-71
2023/03/19 00:45:47;;;;;;;0.10;0.10;;;;;;;-3.54;48.77;101105.03;5008022;28;20046;-70
2023/03/19 00:48:13;;;;;;;0.10;0.10;;;;;;;-3.53;48.79;101109.41;5004204;28;20132;-71
2023/03/19 00:50:39;;;;;;;0.10;0.10;;;;;;;-3.54;49.10;101113.06;5005558;28;20050;-71
2023/03/19 00:53:05;;;;;;;0.10;0.10;;;;;;;-3.53;49.05;101115.56;5006805;28;20520;-71
2023/03/19 00:55:31;;;;;;;0.10;0.10;;;;;;;-3.54;49.12;101113.06;5005793;28;20049;-71
2023/03/19 00:57:57;;;;;;;0.10;0.10;;;;;;;-3.57;49.14;101111.53;5005756;28;20105;-71
2023/03/19 01:00:25;;;;;;;0.10;0.10;;;;;;;-3.66;49.07;101094.53;5007348;28;20112;-70
2023/03/19 01:02:51;;;;;;;;;;;;;;;-3.57;49.39;101106.16;4989410;28;20077;-71
2023/03/19 01:05:17;;;;;;;0.10;0.10;;;;;;;-3.58;49.24;101104.50;5006641;28;20392;-70
2023/03/19 01:07:44;;;;;;;0.10;0.10;;;;;;;-3.60;49.29;101101.13;5020678;28;20072;-71
2023/03/19 01:10:10;;;;;;;0.10;0.10;;;;;;;-3.60;49.42;101103.81;5003032;28;20425;-70
2023/03/19 01:12:37;;;;;;;0.10;0.10;;;;;;;-3.62;49.41;101101.25;5003738;28;20054;-70
2023/03/19 01:15:05;;;;;;;0.10;0.10;;;;;;;-3.69;49.68;101089.50;5005208;28;20080;-70
2023/03/19 01:17:33;;;;;;;0.10;0.10;;;;;;;-3.65;49.90;101101.56;5004714;28;20058;-70
2023/03/19 01:19:59;;;;;;;;;;;;;;;-3.64;49.68;101105.09;4992101;28;20081;-71
2023/03/19 01:22:26;;;;;;;0.10;0.10;;;;;;;-3.70;49.76;101088.66;4984429;28;19925;-71
2023/03/19 01:24:56;;;;;;;0.10;0.10;;;;;;;-3.66;49.85;101094.53;4983589;28;20046;-71
2023/03/19 01:27:22;;;;;;;0.10;0.10;;;;;;;-3.69;49.88;101086.81;4952922;28;20552;-71
2023/03/19 01:29:50;;;;;;;0.10;0.10;;;;;;;-3.82;50.16;101073.81;4987509;28;20042;-71
2023/03/19 01:32:37;;;;;;;0.45;0.20;;;;;;;-3.73;50.26;101088.94;4984614;28;20050;-71
2023/03/19 01:35:30;;;;;;;0.00;0.00;;;;;;;-3.75;50.55;101087.41;4985707;28;20046;-71
2023/03/19 01:37:56;;;;;;;0.20;0.10;;;;;;;-3.76;50.24;101097.28;4983410;28;20435;-71
2023/03/19 01:40:23;;;;;;;0.10;0.10;;;;;;;-3.78;50.37;101093.91;4994905;28;20659;-71
2023/03/19 01:42:54;;;;;;;0.10;0.10;;;;;;;-3.81;50.43;101088.00;4987205;28;20057;-71
2023/03/19 01:45:48;;;;;;;0.10;0.10;;;;;;;-3.79;50.64;101091.38;4989718;28;20398;-70
2023/03/19 01:48:48;;;;;;;0.20;0.10;;;;;;;-3.82;50.66;101091.69;4986449;28;20429;-71
2023/03/19 01:51:19;;;;;;;0.10;0.10;;;;;;;-3.85;50.58;101093.66;4990746;28;20076;-71
2023/03/19 01:54:01;;;;;;;0.10;0.10;;;;;;;-3.88;50.77;101085.94;4983402;28;20058;-71
2023/03/19 01:56:54;;;;;;;0.10;0.10;;;;;;;-3.91;50.87;101088.06;4983107;28;20058;-71
2023/03/19 01:59:34;;;;;;;0.10;0.10;;;;;;;-3.95;51.08;101081.34;4983465;28;20042;-71
2023/03/19 02:02:29;;;;;;;0.10;0.10;;;;;;;-4.02;51.13;101065.88;5004046;28;20054;-74
2023/03/19 02:05:01;;;;;;;0.10;0.10;;;;;;;-4.00;50.94;101071.91;5002263;28;20054;-73
2023/03/19 02:07:30;;;;;;;0.23;0.20;;;;;;;-4.00;51.25;101066.56;5004658;28;20537;-73
2023/03/19 02:09:58;;;;;;;0.10;0.10;;;;;;;-3.99;51.07;101072.75;5005010;28;20038;-74
2023/03/19 02:12:25;;;;;;;0.07;0.07;;;;;;;-4.04;51.30;101059.84;5000439;28;20129;-73
2023/03/19 02:14:51;;;;;;;0.10;0.10;;;;;;;-4.02;51.29;101073.88;4989345;28;20052;-73
2023/03/19 02:17:19;;;;;;;0.10;0.10;;;;;;;-4.03;51.23;101069.53;4986255;28;20046;-74
2023/03/19 02:19:51;;;;;;;0.13;0.10;;;;;;;-4.04;51.44;101059.84;5001347;28;20637;-73
2023/03/19 02:22:22;;;;;;;0.10;0.10;;;;;;;-4.04;51.39;101065.19;4999483;28;20129;-73
2023/03/19 02:24:53;;;;;;;0.10;0.10;;;;;;;-4.06;51.40;101060.97;4968543;28;20050;-73
2023/03/19 02:27:22;;;;;;;0.10;0.10;;;;;;;-4.04;51.61;101061.69;4984186;28;20185;-73
2023/03/19 02:29:50;;;;;;;0.00;0.00;;;;;;;-4.03;51.65;101055.34;4968371;28;20118;-74
2023/03/19 02:32:16;;;;;;;0.10;0.10;;;;;;;-4.13;51.24;101050.88;4966808;28;20145;-73
2023/03/19 02:34:43;;;;;;;0.10;0.10;;;;;;;-4.08;51.47;101061.13;4966703;28;20095;-73
2023/03/19 02:37:15;;;;;;;0.10;0.10;;;;;;;-4.09;51.54;101056.78;4984321;28;20590;-74
2023/03/19 02:39:48;;;;;;;0.00;0.00;;;;;;;-4.10;51.65;101063.13;4985023;28;20061;-74
2023/03/19 02:42:16;;;;;;;1.03;0.20;;;;;;;-4.14;52.16;101056.34;4981623;28;20134;-74
2023/03/19 02:44:45;;;;;;;0.10;0.10;;;;;;;-4.13;52.11;101058.06;4986400;28;20050;-74
2023/03/19 02:47:11;;;;;;;0.10;0.10;;;;;;;-4.14;52.16;101051.88;4986321;28;20485;-73
2023/03/19 02:49:37;;;;;;;0.10;0.10;;;;;;;-4.17;52.46;101052.19;4982112;28;20050;-73
2023/03/19 02:52:03;;;;;;;0.10;0.10;;;;;;;-4.20;52.58;101055.16;4983924;28;20053;-73
2023/03/19 02:54:29;;;;;;;0.10;0.10;;;;;;;-4.19;52.53;101045.28;4981767;28;20093;-73
2023/03/19 02:56:55;;;;;;;0.10;0.10;;;;;;;-4.22;52.75;101049.09;4985890;28;20089;-73
2023/03/19 02:59:22;;;;;;;0.10;0.10;;;;;;;-4.27;52.87;101038.88;4965647;28;20050;-72
2023/03/19 03:01:49;;;;;;;0.07;0.07;;;;;;;-4.31;53.12;101045.47;4983455;28;20042;-72
2023/03/19 03:04:16;;;;;;;0.10;0.10;;;;;;;-4.34;53.11;101036.91;4984156;28;20399;-73
2023/03/19 03:06:42;;;;;;;0.10;0.10;;;;;;;-4.39;53.20;101040.03;4982210;28;20049;-72
2023/03/19 03:09:09;;;;;;;0.10;0.10;;;;;;;-4.47;53.14;101029.22;4981945;28;20210;-73
2023/03/19 03:11:35;;;;;;;0.10;0.10;;;;;;;-4.42;53.37;101046.50;4982717;28;20052;-73
2023/03/19 03:14:01;;;;;;;0.10;0.10;;;;;;;-4.49;53.45;101032.06;4985667;28;20488;-73
2023/03/19 03:16:28;;;;;;;0.10;0.10;;;;;;;-4.47;53.95;101040.75;4978203;28;20042;-73
2023/03/19 03:18:55;;;;;;;0.10;0.10;;;;;;;-4.51;53.94;101031.34;5003198;28;20312;-73
2023/03/19 03:21:22;;;;;;;0.10;0.10;;;;;;;-4.50;54.08;101032.19;4987299;28;20064;-73
2023/03/19 03:23:48;;;;;;;0.20;0.20;;;;;;;-4.56;54.10;101034.47;5003922;28;20075;-74
2023/03/19 03:26:14;;;;;;;0.10;0.10;;;;;;;-4.57;54.24;101031.91;5001840;28;20046;-74
2023/03/19 03:28:40;;;;;;;0.10;0.10;;;;;;;-4.60;54.05;101033.06;4987453;28;20054;-73
2023/03/19 03:31:06;;;;;;;0.33;0.10;;;;;;;-4.63;54.10;101036.00;5005492;28;20060;-73
2023/03/19 03:33:32;;;;;;;0.10;0.10;;;;;;;-4.66;54.19;101030.97;5004164;28;20057;-72
2023/03/19 03:36:00;;;;;;;0.10;0.10;;;;;;;-4.68;54.34;101035.59;5002188;28;20046;-73
2023/03/19 03:38:26;;;;;;;;;;;;;;;-4.71;54.46;101031.38;5002298;28;20042;-73
2023/03/19 03:40:53;;;;;;;0.10;0.10;;;;;;;-4.72;54.61;101037.72;4982881;28;20024;-73
2023/03/19 03:43:22;;;;;;;0.07;0.07;;;;;;;-4.77;54.58;101031.13;4984272;28;20105;-73
2023/03/19 03:45:48;;;;;;;1.10;0.20;;;;;;;-4.77;54.81;101025.78;4983187;28;20053;-73
2023/03/19 03:48:16;;;;;;;0.00;0.00;;;;;;;-4.77;54.93;101025.78;4985814;28;20039;-73
2023/03/19 03:50:42;;;;;;;0.10;0.10;;;;;;;-4.75;54.94;101024.66;5002000;28;20301;-73
2023/03/19 03:53:14;;;;;;;0.10;0.10;;;;;;;-4.74;54.87;101029.00;5003976;28;20583;-73
2023/03/19 03:55:41;;;;;;;0.30;0.20;;;;;;;-4.69;54.90;101017.91;5001972;28;20136;-73
2023/03/19 03:58:07;;;;;;;0.10;0.10;;;;;;;-4.66;54.80;101019.47;5000327;28;20101;-72
2023/03/19 04:00:33;;;;;;;0.10;0.10;;;;;;;-4.65;54.92;101016.63;4984390;28;20059;-72
2023/03/19 04:02:59;;;;;;;0.43;0.13;;;;;;;-4.61;54.75;101022.53;4983726;28;20129;-72
2023/03/19 04:05:26;;;;;;;0.10;0.10;;;;;;;-4.59;54.61;101013.41;4985408;28;20047;-72
2023/03/19 04:07:52;;;;;;;0.33;0.10;;;;;;;-4.56;54.53;101015.78;4983594;28;20054;-72
2023/03/19 04:10:20;;;;;;;0.10;0.10;;;;;;;-4.51;54.65;101019.81;4983595;28;20081;-73
2023/03/19 04:12:46;;;;;;;0.10;0.10;;;;;;;-4.49;54.30;101018.69;4983393;28;20046;-72
2023/03/19 04:15:12;;;;;;;0.20;0.20;;;;;;;-4.47;54.22;101014.06;4981558;28;20445;-72
2023/03/19 04:17:41;;;;;;;0.10;0.10;;;;;;;-4.42;54.15;101018.97;4980138;28;20525;-72
2023/03/19 04:20:08;;;;;;;0.20;0.20;;;;;;;-4.35;54.36;101013.88;4983246;28;20445;-72
2023/03/19 04:22:35;;;;;;;0.10;0.10;;;;;;;-4.31;53.90;101009.91;4982170;28;20133;-70
2023/03/19 04:25:02;;;;;;;0.88;0.17;;;;;;;-4.25;53.85;101001.31;4983515;28;20100;-70
2023/03/19 04:27:30;;;;;;;0.10;0.10;;;;;;;-4.21;53.57;101004.53;4969536;28;20517;-70
2023/03/19 04:29:56;;;;;;;;;;;;;;;-4.17;53.74;100996.06;4986862;28;20060;-70
2023/03/19 04:32:23;;;;;;;0.10;0.10;;;;;;;-4.13;53.50;100996.63;4969813;28;19926;-70
2023/03/19 04:34:50;;;;;;;0.10;0.10;;;;;;;-4.04;53.50;101000.22;4990163;28;20170;-70
2023/03/19 04:37:16;;;;;;;0.10;0.10;;;;;;;-4.00;53.33;100997.09;5007128;28;20049;-70
2023/03/19 04:39:47;;;;;;;0.20;0.20;;;;;;;-4.01;53.21;100991.91;5005709;28;20050;-71
2023/03/19 04:42:14;;;;;;;0.10;0.10;;;;;;;-3.96;53.02;101000.31;4982021;28;20037;-70
2023/03/19 04:44:53;;;;;;;0.13;0.13;;;;;;;-3.91;52.86;100992.66;5008530;28;20084;-70
2023/03/19 04:47:19;;;;;;;0.10;0.10;;;;;;;-3.81;52.98;100989.97;5007090;28;20129;-70
2023/03/19 04:49:57;;;;;;;0.10;0.10;;;;;;;-3.74;52.89;100993.69;5005229;28;20046;-70
2023/03/19 04:52:25;;;;;;;0.35;0.20;;;;;;;-3.69;52.43;100995.94;4999650;28;20058;-70
2023/03/19 04:54:51;;;;;;;0.20;0.20;;;;;;;-3.65;52.44;100997.28;4968049;28;20054;-69
2023/03/19 04:57:17;;;;;;;0.20;0.20;;;;;;;-3.57;52.52;100996.53;4986274;28;20501;-69
2023/03/19 04:59:46;;;;;;;0.20;0.20;;;;;;;-3.50;52.15;100997.63;4968615;28;20372;-69
2023/03/19 05:02:15;;;;;;;0.10;0.10;;;;;;;-3.43;52.35;100996.00;4972360;28;20038;-69
2023/03/19 05:04:42;;;;;;;0.20;0.20;;;;;;;-3.35;51.95;100994.41;4972618;28;20527;-69
2023/03/19 05:07:11;;;;;;;0.17;0.17;;;;;;;-3.28;51.74;100996.31;5008370;28;20424;-72
2023/03/19 05:09:38;;;;;;;0.10;0.10;;;;;;;-3.20;51.69;100989.34;5003699;28;20050;-72
2023/03/19 05:12:04;;;;;;;0.13;0.13;;;;;;;-3.15;51.56;100982.53;5003814;28;20046;-72
2023/03/19 05:14:37;;;;;;;0.10;0.10;;;;;;;-3.07;51.45;100987.09;5004453;28;20539;-71
2023/03/19 05:17:14;;;;;;;0.20;0.20;;;;;;;-3.02;51.23;100990.13;4988977;28;20054;-71
2023/03/19 05:20:00;;;;;;;0.20;0.20;;;;;;;-2.94;51.07;100985.84;5003599;28;20054;-72
2023/03/19 05:22:28;;;;;;;0.10;0.10;;;;;;;-2.90;51.15;100981.88;5006322;28;20057;-71
2023/03/19 05:24:56;;;;;;;0.22;0.20;;;;;;;-2.83;50.91;100984.75;5006841;28;20057;-71
2023/03/19 05:27:23;;;;;;;0.10;0.10;;;;;;;-2.75;51.04;100987.47;4952522;28;20042;-71
2023/03/19 05:30:00;;;;;;;0.20;0.20;;;;;;;-2.67;50.76;100982.19;4987393;28;20413;-71
2023/03/19 05:32:49;;;;;;;0.20;0.20;;;;;;;-2.61;50.60;100978.84;4982694;28;20482;-72
2023/03/19 05:35:33;;;;;;;0.10;0.10;;;;;;;-2.61;50.65;100973.50;4986701;28;20046;-71
2023/03/19 05:38:01;;;;;;;0.20;0.20;;;;;;;-2.50;50.68;100980.41;5001875;28;20386;-71
2023/03/19 05:40:27;;;;;;;0.20;0.20;;;;;;;-2.51;50.61;100968.00;5005201;28;20042;-71
2023/03/19 05:42:54;;;;;;;0.20;0.20;;;;;;;-2.43;50.60;100972.56;4986592;28;20054;-71
2023/03/19 05:45:24;;;;;;;0.20;0.20;;;;;;;-2.34;50.27;100973.44;4994301;28;20066;-71
2023/03/19 05:47:53;;;;;;;0.20;0.20;;;;;;;-2.36;50.45;100962.06;4982993;28;20573;-71
2023/03/19 05:50:20;;;;;;;0.22;0.22;;;;;;;-2.32;50.40;100958.06;4998635;28;20580;-72
2023/03/19 05:53:11;;;;;;;0.20;0.20;;;;;;;-2.25;50.48;100956.41;4983893;28;20517;-70
2023/03/19 05:55:41;;;;;;;0.13;0.13;;;;;;;-2.12;50.32;100950.59;4984903;28;20093;-71
2023/03/19 05:58:10;;;;;;;0.10;0.10;;;;;;;-1.98;50.08;100943.78;4982445;28;20125;-72
2023/03/19 06:00:36;;;;;;;0.20;0.20;;;;;;;-1.86;50.07;100949.66;4985992;28;20068;-71
2023/03/19 06:03:03;;;;;;;0.20;0.20;;;;;;;-1.72;49.63;100945.47;4987438;28;20042;-71
2023/03/19 06:05:38;;;;;;;0.20;0.20;;;;;;;-1.64;49.48;100944.66;4967568;28;20600;-73
2023/03/19 06:08:17;;;;;;;0.20;0.20;;;;;;;-1.53;49.26;100949.69;5004926;28;20050;-71
2023/03/19 06:10:56;;;;;;;0.20;0.20;;;;;;;-1.35;48.89;100932.59;5004765;28;20569;-71
2023/03/19 06:13:22;;;;;;;0.30;0.30;;;;;;;-1.24;48.71;100931.44;4652859;28;9999872;-72
2023/03/19 06:16:06;;;;;;;0.20;0.20;;;;;;;-1.06;48.48;100931.22;4980840;28;20149;-68
2023/03/19 06:18:36;;;;;;;0.20;0.20;;;;;;;-0.81;48.16;100923.94;4995962;28;20447;-69
2023/03/19 06:21:08;;;;;;;0.20;0.20;;;;;;;-0.55;47.55;100922.88;4993109;28;20448;-71
2023/03/19 06:23:36;;;;;;;0.20;0.20;;;;;;;-0.54;47.32;100919.19;4964615;28;20057;-69
2023/03/19 06:26:04;;;;;;;0.20;0.20;;;;;;;-0.50;47.06;100915.13;4980368;28;20046;-69
2023/03/19 06:28:35;;;;;;;0.20;0.20;;;;;;;-0.58;47.14;100917.84;4966967;28;20085;-69
2023/03/19 06:31:03;;;;;;;0.22;0.22;;;;;;;-0.63;47.26;100917.50;4989849;28;20136;-69
2023/03/19 06:33:49;;;;;;;0.20;0.20;;;;;;;-0.47;46.99;100909.41;4997467;28;20721;-69
2023/03/19 06:36:15;;;;;;;0.20;0.20;;;;;;;-0.13;46.57;100906.56;5015740;28;20050;-69
2023/03/19 06:38:43;;;;;;;0.20;0.20;;;;;;;-0.03;46.04;100905.31;4999076;28;20058;-69
2023/03/19 06:41:09;;;;;;;0.20;0.20;;;;;;;0.14;45.60;100895.28;4999051;28;20041;-69
2023/03/19 06:43:36;;;;;;;0.20;0.20;;;;;;;0.30;45.88;100906.09;4999522;28;20048;-69
2023/03/19 06:46:02;;;;;;;0.20;0.20;;;;;;;0.45;45.28;100900.75;5004590;28;20745;-69
2023/03/19 06:48:28;;;;;;;0.20;0.20;;;;;;;0.40;45.20;100902.16;5001437;28;20065;-69
2023/03/19 06:50:54;;;;;;;0.20;0.20;;;;;;;0.43;45.14;100898.28;5002787;28;20124;-69
2023/03/19 06:53:20;;;;;;;0.20;0.20;;;;;;;0.48;45.17;100892.34;4982408;28;20108;-70
2023/03/19 06:55:48;;;;;;;0.20;0.20;;;;;;;0.61;44.89;100891.72;4982341;28;20080;-70
2023/03/19 06:58:14;;;;;;;0.20;0.20;;;;;;;0.79;44.50;100889.53;4982334;28;20050;-69
2023/03/19 07:00:40;;;;;;;0.20;0.20;;;;;;;0.95;44.16;100895.78;5000746;28;20140;-70
2023/03/19 07:03:06;;;;;;;0.43;0.20;;;;;;;1.08;44.04;100884.34;4999658;28;20074;-70
2023/03/19 07:05:32;;;;;;;0.20;0.20;;;;;;;1.28;43.52;100884.63;5002006;28;20475;-69
2023/03/19 07:07:59;;;;;;;0.20;0.20;;;;;;;1.47;43.27;100887.78;4992205;28;20070;-69
2023/03/19 07:10:25;;;;;;;0.47;0.30;;;;;;;1.55;43.13;100888.50;4997137;28;20120;-69
2023/03/19 07:12:52;;;;;;;0.68;0.50;;;;;;;1.86;42.58;100888.44;4983490;28;20058;-70
2023/03/19 07:15:20;;;;;;;0.30;0.30;;;;;;;2.03;42.28;100884.50;4982578;28;20073;-69
2023/03/19 07:17:46;;;;;;;0.20;0.20;;;;;;;2.18;41.84;100879.03;4969126;28;20465;-69
2023/03/19 07:20:13;;;;;;;0.20;0.20;;;;;;;2.39;41.77;100874.66;4983704;28;20549;-69
2023/03/19 07:22:40;;;;;;;0.30;0.30;;;;;;;2.62;41.18;100876.31;5000838;28;20057;-70
2023/03/19 07:25:07;;;;;;;0.20;0.20;;;;;;;2.75;41.13;100871.00;4998276;28;20792;-69
2023/03/19 07:27:33;;;;;;;0.20;0.20;;;;;;;3.01;40.68;100872.19;5000208;28;20137;-69
2023/03/19 07:30:01;;;;;;;0.20;0.20;;;;;;;3.12;40.07;100876.22;5001397;28;20057;-69
2023/03/19 07:32:28;;;;;;;0.20;0.20;;;;;;;3.33;39.67;100867.19;5004019;28;20053;-69
2023/03/19 07:34:55;;;;;;;0.20;0.20;;;;;;;3.50;39.39;100866.84;4983437;28;20133;-70
2023/03/19 07:37:21;;;;;;;0.20;0.20;;;;;;;3.54;39.25;100866.22;4983466;28;20070;-70
2023/03/19 07:39:47;;;;;;;0.25;0.25;;;;;;;3.48;39.58;100864.34;4986525;28;20056;-71
2023/03/19 07:42:14;;;;;;;0.20;0.20;;;;;;;3.48;39.41;100869.75;4992686;28;20088;-72
2023/03/19 07:44:41;;;;;;;0.20;0.20;;;;;;;3.55;39.23;100865.19;4982142;28;20054;-71
2023/03/19 07:47:09;;;;;;;0.25;0.25;;;;;;;3.85;38.95;100864.06;4991532;28;20042;-72
2023/03/19 07:49:35;;;;;;;;;;;;;;;4.40;37.86;100872.06;4989460;28;20090;-72
2023/03/19 07:52:01;;;;;;;0.30;0.25;;;;;;;5.00;37.06;100861.41;4987247;28;19930;-72
2023/03/19 07:54:28;;;;;;;0.20;0.20;;;;;;;5.43;35.82;100862.75;4993984;28;20041;-72
2023/03/19 07:56:54;;;;;;;0.30;0.30;;;;;;;5.48;35.88;100862.91;4974886;28;20119;-72
2023/03/19 07:59:20;;;;;;;0.20;0.20;;;;;;;5.59;35.27;100864.13;5002215;28;20089;-72
2023/03/19 08:01:46;;;;;;;0.20;0.20;;;;;;;5.59;35.07;100855.97;4983624;28;20113;-72
2023/03/19 08:04:14;;;;;;;0.30;0.30;;;;;;;5.63;35.12;100863.47;5001011;28;20100;-72
2023/03/19 08:06:40;;;;;;;0.82;0.32;;;;;;;5.80;35.22;100852.97;4993583;28;20042;-70
2023/03/19 08:09:06;;;;;;;0.32;0.30;;;;;;;6.10;34.48;100855.13;5002841;28;20426;-70
2023/03/19 08:11:32;;;;;;;0.20;0.20;;;;;;;6.42;33.87;100850.72;5004340;28;20054;-70
2023/03/19 08:13:58;;;;;;;0.20;0.20;;;;;;;7.06;32.93;100850.53;5002685;28;20137;-70
2023/03/19 08:16:25;;;;;;;0.20;0.20;;;;;;;7.24;32.46;100847.81;4986268;28;20524;-71
2023/03/19 08:18:51;;;;;;;0.20;0.20;;;;;;;7.40;32.16;100850.97;4986296;28;20053;-70
2023/03/19 08:21:18;;;;;;;0.25;0.25;;;;;;;7.64;31.85;100840.19;5002391;28;20054;-71
2023/03/19 08:23:45;;;;;;;0.20;0.20;;;;;;;8.17;31.30;100838.63;4997641;28;20053;-70
2023/03/19 08:26:11;;;;;;;0.20;0.20;;;;;;;8.62;30.70;100828.28;4984588;28;20061;-70
2023/03/19 08:28:37;;;;;;;0.30;0.30;;;;;;;9.14;29.81;100829.44;4983209;28;20506;-72
2023/03/19 08:31:07;;;;;;;0.30;0.30;;;;;;;9.52;29.31;100825.31;5016804;28;20549;-70
2023/03/19 08:33:35;;;;;;;0.28;0.28;;;;;;;9.91;28.73;100828.25;5002504;28;20052;-70
2023/03/19 08:36:07;;;;;;;0.30;0.30;;;;;;;9.60;29.00;100824.94;5007555;28;20042;-70
2023/03/19 08:38:34;;;;;;;0.30;0.30;;;;;;;9.65;28.95;100816.84;5004725;28;20104;-70
2023/03/19 08:41:03;;;;;;;0.30;0.30;;;;;;;9.87;28.58;100823.50;4997555;28;20076;-70
2023/03/19 08:43:29;;;;;;;0.45;0.30;;;;;;;9.99;28.37;100812.50;5005870;28;20492;-71
2023/03/19 08:45:55;;;;;;;0.30;0.30;;;;;;;9.77;28.52;100805.03;5005912;28;20076;-71
2023/03/19 08:48:22;;;;;;;0.35;0.35;;;;;;;9.70;28.89;100798.88;5000293;28;20304;-71
2023/03/19 08:50:52;;;;;;;0.30;0.30;;;;;;;10.07;28.24;100787.53;5002198;28;20136;-70
2023/03/19 08:53:18;;;;;;;0.40;0.40;;;;;;;10.39;27.70;100781.50;4988851;28;20038;-71
2023/03/19 08:55:50;;;;;;;0.30;0.30;;;;;;;10.83;27.29;100779.94;5003318;28;20145;-70
2023/03/19 08:58:16;;;;;;;0.43;0.30;;;;;;;10.99;27.07;100783.72;5020105;28;20046;-71
2023/03/19 09:00:42;;;;;;;0.30;0.30;;;;;;;11.43;26.62;100771.91;5003348;28;20510;-71
2023/03/19 09:03:09;;;;;;;0.40;0.40;;;;;;;11.97;25.81;100770.28;4999713;28;20054;-72
2023/03/19 09:05:35;;;;;;;0.40;0.40;;;;;;;12.36;25.67;100770.06;4972200;28;20112;-71
2023/03/19 09:08:01;;;;;;;0.40;0.40;;;;;;;12.98;24.93;100766.88;4986592;28;20532;-71
2023/03/19 09:10:28;;;;;;;0.40;0.40;;;;;;;13.29;24.14;100758.75;4990600;28;20132;-71
2023/03/19 09:12:55;;;;;;;0.40;0.40;;;;;;;12.57;24.96;100756.50;4987337;28;20426;-72
2023/03/19 09:15:22;;;;;;;0.40;0.40;;;;;;;12.19;25.31;100740.06;4990368;28;20042;-71
2023/03/19 09:17:48;;;;;;;0.40;0.40;;;;;;;12.45;25.09;100745.72;4983688;28;20043;-71
2023/03/19 09:20:14;;;;;;;0.40;0.40;;;;;;;12.37;25.24;100751.69;4984958;28;20084;-71
2023/03/19 09:22:41;;;;;;;0.40;0.40;;;;;;;11.47;26.16;100741.03;4983749;28;20050;-71
2023/03/19 09:25:07;;;;;;;0.43;0.43;;;;;;;11.44;26.81;100727.88;4988227;28;20602;-71
2023/03/19 09:27:34;;;;;;;0.50;0.50;;;;;;;12.22;26.38;100738.69;4972416;28;20422;-71
2023/03/19 09:30:03;;;;;;;0.50;0.50;;;;;;;12.46;25.98;100734.47;4983569;28;20068;-72
2023/03/19 09:32:29;;;;;;;0.40;0.40;;;;;;;12.41;26.13;100736.38;4986179;28;20050;-72
2023/03/19 09:34:56;;;;;;;0.60;0.60;;;;;;;12.25;25.67;100689.66;4986467;28;20054;-71
2023/03/19 09:37:22;;;;;;;0.50;0.50;;;;;;;12.42;25.98;100724.31;4302251;28;10000357;-71
2023/03/19 09:39:48;;;;;;;0.50;0.50;;;;;;;12.55;25.69;100709.28;4963870;28;20046;-71
2023/03/19 09:42:26;;;;;;;0.50;0.50;;;;;;;12.89;25.33;100720.72;4995084;28;20053;-71
2023/03/19 09:44:53;;;;;;;0.60;0.60;;;;;;;13.26;24.85;100710.69;4982530;28;20050;-71
2023/03/19 09:47:27;;;;;;;0.60;0.60;;;;;;;13.61;24.46;100722.84;5001458;28;20041;-72
2023/03/19 09:49:56;;;;;;;0.60;0.60;;;;;;;13.50;24.65;100712.94;4997758;28;20417;-72
2023/03/19 09:52:34;;;;;;;0.60;0.60;;;;;;;13.02;25.14;100715.81;4989790;28;20088;-72
2023/03/19 09:55:11;;;;;;;0.70;0.70;;;;;;;12.90;24.88;100725.09;4997072;28;20060;-72
2023/03/19 09:57:38;;;;;;;0.68;0.68;;;;;;;12.58;25.45;100709.59;5000354;28;20128;-72
2023/03/19 10:00:18;;;;;;;0.70;0.70;;;;;;;12.62;25.38;100709.88;4997667;28;20080;-72
2023/03/19 10:02:48;;;;;;;0.70;0.70;;;;;;;12.75;25.09;100716.81;4998112;28;20120;-72
2023/03/19 10:05:24;;;;;;;0.70;0.70;;;;;;;13.03;24.77;100715.56;4985209;28;20053;-72
2023/03/19 10:08:17;;;;;;;0.70;0.70;;;;;;;12.95;24.37;100705.09;5001357;28;20513;-74
2023/03/19 10:10:58;;;;;;;0.70;0.70;;;;;;;13.27;24.59;100701.34;4977319;28;20042;-72
2023/03/19 10:13:38;;;;;;;0.70;0.70;;;;;;;14.08;23.42;100700.88;4999499;28;20115;-71
2023/03/19 10:16:11;;;;;;;0.80;0.80;;;;;;;13.72;23.72;100696.22;4987280;28;20572;-72
2023/03/19 10:18:43;;;;;;;0.80;0.80;;;;;;;14.21;23.58;100695.91;4982961;28;20534;-71
2023/03/19 10:21:15;;;;;;;0.85;0.82;;;;;;;14.11;23.00;100692.06;4984308;28;20255;-71
2023/03/19 10:23:44;;;;;;;0.80;0.80;;;;;;;13.31;23.71;100691.47;4981918;28;20148;-70
2023/03/19 10:26:14;;;;;;;0.90;0.90;;;;;;;13.52;23.75;100690.69;4981863;28;20524;-71
2023/03/19 10:28:43;;;;;;;0.80;0.80;;;;;;;13.81;23.67;100676.44;4996956;28;20125;-71
2023/03/19 10:31:24;;;;;;;0.90;0.90;;;;;;;14.70;22.65;100684.22;4998188;28;20053;-71
2023/03/19 10:34:00;;;;;;;0.90;0.90;;;;;;;15.11;22.24;100686.00;5020252;28;20449;-71
2023/03/19 10:36:33;;;;;;;1.00;0.90;;;;;;;15.04;22.76;100682.75;5003316;28;20525;-71
2023/03/19 10:39:00;;;;;;;0.90;0.90;;;;;;;15.60;21.69;100683.47;5003219;28;20588;-71
2023/03/19 10:41:37;;;;;;;0.98;0.98;;;;;;;15.66;21.53;100665.81;4988492;28;20057;-70
2023/03/19 10:44:12;;;;;;;1.00;1.00;;;;;;;16.42;21.33;100672.84;4985652;28;20573;-72
2023/03/19 10:46:39;;;;;;;1.00;1.00;;;;;;;17.30;20.48;100668.97;4982581;28;20081;-72
2023/03/19 10:49:13;;;;;;;1.00;1.00;;;;;;;17.67;20.16;100674.75;4979495;28;20069;-72
2023/03/19 10:51:44;;;;;;;1.10;1.10;;;;;;;18.12;19.36;100671.56;4980824;28;20051;-71
2023/03/19 10:54:21;;;;;;;1.08;1.08;;;;;;;17.75;19.77;100676.84;4998589;28;20073;-71
2023/03/19 10:56:48;;;;;;;1.10;1.10;;;;;;;18.14;19.82;100666.53;4982727;28;20133;-72
2023/03/19 10:59:22;;;;;;;1.10;1.10;;;;;;;19.21;19.11;100661.06;4982378;28;20046;-73
2023/03/19 11:01:49;;;;;;;1.10;1.10;;;;;;;19.08;18.46;100662.72;4992488;28;20635;-72
2023/03/19 11:04:20;;;;;;;1.20;1.20;;;;;;;18.50;18.83;100648.41;5000113;28;20089;-73
2023/03/19 11:06:49;;;;;;;1.27;1.20;;;;;;;18.09;19.60;100655.53;5003780;28;20041;-72
2023/03/19 11:09:23;;;;;;;1.67;1.58;;;;;;;17.95;19.51;100649.97;5006726;28;20141;-72
2023/03/19 11:12:00;;;;;;;1.27;1.20;;;;;;;18.90;18.72;100650.63;4990609;28;20531;-72
2023/03/19 11:14:38;;;;;;;1.30;1.20;;;;;;;19.19;18.36;100644.72;4983942;28;20045;-72
2023/03/19 11:17:06;;;;;;;1.20;1.20;;;;;;;19.30;18.18;100636.19;4975601;28;20596;-72
2023/03/19 11:19:40;;;;;;;1.30;1.20;;;;;;;19.35;18.15;100639.63;4978684;28;20124;-72
2023/03/19 11:22:16;;;;;;;1.30;1.20;;;;;;;19.61;18.62;100643.75;4982729;28;20055;-72
2023/03/19 11:24:52;;;;;;;1.30;1.20;;;;;;;19.76;18.26;100631.44;4985333;28;20052;-73
2023/03/19 11:27:32;;;;;;;1.30;1.20;;;;;;;19.37;18.69;100626.28;4967181;28;20062;-72
2023/03/19 11:29:59;;;;;;;1.30;1.20;;;;;;;19.10;18.38;100611.41;4984509;28;20051;-72
2023/03/19 11:32:41;;;;;;;1.40;1.30;;;;;;;19.02;18.88;100617.66;5004254;28;20050;-72
2023/03/19 11:35:14;;;;;;;1.40;1.30;;;;;;;19.76;18.55;100617.56;5004493;28;20054;-72
2023/03/19 11:37:52;;;;;;;1.30;1.20;;;;;;;19.75;18.05;100613.16;5003819;28;20045;-73
2023/03/19 11:40:22;;;;;;;;;;;;;;;19.14;18.51;100619.91;5008830;28;20053;-72